< < Back
Terminal Aerodrome Forecast


Current Version              Previous Versions:   1  2  3  4  5  6  7  8  9  

Terminal Aerodrome Forecast

068
FTUS42 KGSP 301808 CCA
TAFHKY
TAF COR
KHKY 301808Z 3018/0118 14005KT P6SM VCTS BKN025CB
     FM302000 15005KT P6SM VCTS BKN035CB
      TEMPO 3020/3024 VRB15G25KT 4SM TSRA BKN020CB
     FM010300 19004KT P6SM VCTS BKN050CB
     FM010500 25003KT P6SM BKN060
     FM010900 00000KT 3SM BR BKN005
     FM011400 24006KT P6SM FEW010 SCT040=

Latest METAR

254
SAUS70 KWBC 301900 RRQ
MTRHKY
METAR KHKY 301853Z 08008KT 10SM FEW027 SCT045 28/20 A3003 RMK AO2 SLP144
T02780200


USA.gov is the U.S. government's official web portal to all federal, state and local government web resources and services.